sensor_id;sensor_type;location;lat;lon;timestamp;temperature;humidity
21582;DHT22;10952;50.836;4.348;2022-12-20T00:01:50;13.90;99.90
21582;DHT22;10952;50.836;4.348;2022-12-20T00:04:19;13.90;99.90
21582;DHT22;10952;50.836;4.348;2022-12-20T00:06:44;13.90;99.90
21582;DHT22;10952;50.836;4.348;2022-12-20T00:09:13;13.90;99.90
21582;DHT22;10952;50.836;4.348;2022-12-20T00:11:42;13.90;99.90
21582;DHT22;10952;50.836;4.348;2022-12-20T00:14:08;13.70;99.90
21582;DHT22;10952;50.836;4.348;2022-12-20T00:16:37;13.70;99.90
21582;DHT22;10952;50.836;4.348;2022-12-20T00:19:35;13.70;99.90
21582;DHT22;10952;50.836;4.348;2022-12-20T00:22:11;13.70;99.90
21582;DHT22;10952;50.836;4.348;2022-12-20T00:24:40;13.80;99.90
21582;DHT22;10952;50.836;4.348;2022-12-20T00:30:16;13.70;99.90
21582;DHT22;10952;50.836;4.348;2022-12-20T00:33:16;13.50;99.90
21582;DHT22;10952;50.836;4.348;2022-12-20T00:36:00;13.50;99.90
21582;DHT22;10952;50.836;4.348;2022-12-20T00:38:33;13.60;99.90
21582;DHT22;10952;50.836;4.348;2022-12-20T00:41:25;13.60;99.90
21582;DHT22;10952;50.836;4.348;2022-12-20T00:44:03;13.60;99.90
21582;DHT22;10952;50.836;4.348;2022-12-20T00:46:29;13.50;99.90
21582;DHT22;10952;50.836;4.348;2022-12-20T00:48:59;13.50;99.90
21582;DHT22;10952;50.836;4.348;2022-12-20T00:51:29;13.60;99.90
21582;DHT22;10952;50.836;4.348;2022-12-20T00:53:57;13.60;99.90
21582;DHT22;10952;50.836;4.348;2022-12-20T00:56:39;13.60;99.90
21582;DHT22;10952;50.836;4.348;2022-12-20T00:59:08;13.70;99.90
21582;DHT22;10952;50.836;4.348;2022-12-20T01:01:33;13.60;99.90
21582;DHT22;10952;50.836;4.348;2022-12-20T01:04:00;13.50;99.90
21582;DHT22;10952;50.836;4.348;2022-12-20T01:06:28;13.60;99.90
21582;DHT22;10952;50.836;4.348;2022-12-20T01:08:57;13.70;99.90
21582;DHT22;10952;50.836;4.348;2022-12-20T01:11:29;13.70;99.90
21582;DHT22;10952;50.836;4.348;2022-12-20T01:14:00;13.70;99.90
21582;DHT22;10952;50.836;4.348;2022-12-20T01:16:36;13.50;99.90
21582;DHT22;10952;50.836;4.348;2022-12-20T01:19:11;13.50;99.90
21582;DHT22;10952;50.836;4.348;2022-12-20T01:21:39;13.50;99.90
21582;DHT22;10952;50.836;4.348;2022-12-20T01:24:12;13.40;99.90
21582;DHT22;10952;50.836;4.348;2022-12-20T01:26:41;13.40;99.90
21582;DHT22;10952;50.836;4.348;2022-12-20T01:29:08;13.40;99.90
21582;DHT22;10952;50.836;4.348;2022-12-20T01:31:37;13.40;99.90
21582;DHT22;10952;50.836;4.348;2022-12-20T01:34:04;13.20;99.90
21582;DHT22;10952;50.836;4.348;2022-12-20T01:36:32;13.30;99.90
21582;DHT22;10952;50.836;4.348;2022-12-20T01:39:00;13.40;99.90
21582;DHT22;10952;50.836;4.348;2022-12-20T01:41:28;13.40;99.90
21582;DHT22;10952;50.836;4.348;2022-12-20T01:44:04;13.40;99.90
21582;DHT22;10952;50.836;4.348;2022-12-20T01:46:33;13.50;99.90
21582;DHT22;10952;50.836;4.348;2022-12-20T01:51:35;13.30;99.90
21582;DHT22;10952;50.836;4.348;2022-12-20T01:54:11;13.40;99.90
21582;DHT22;10952;50.836;4.348;2022-12-20T01:56:43;13.30;99.90
21582;DHT22;10952;50.836;4.348;2022-12-20T01:59:12;13.30;99.90
21582;DHT22;10952;50.836;4.348;2022-12-20T02:01:42;13.20;99.90
21582;DHT22;10952;50.836;4.348;2022-12-20T02:04:08;13.10;99.90
21582;DHT22;10952;50.836;4.348;2022-12-20T02:06:35;13.10;99.90
21582;DHT22;10952;50.836;4.348;2022-12-20T02:09:03;13.00;99.90
21582;DHT22;10952;50.836;4.348;2022-12-20T02:12:08;13.10;99.90
21582;DHT22;10952;50.836;4.348;2022-12-20T02:23:41;13.20;99.90
21582;DHT22;10952;50.836;4.348;2022-12-20T02:26:29;13.20;99.90
21582;DHT22;10952;50.836;4.348;2022-12-20T02:32:05;13.20;99.90
21582;DHT22;10952;50.836;4.348;2022-12-20T02:34:35;13.30;99.90
21582;DHT22;10952;50.836;4.348;2022-12-20T02:37:02;13.20;99.90
21582;DHT22;10952;50.836;4.348;2022-12-20T02:39:30;13.30;99.90
21582;DHT22;10952;50.836;4.348;2022-12-20T02:42:03;13.20;99.90
21582;DHT22;10952;50.836;4.348;2022-12-20T02:44:35;13.40;99.90
21582;DHT22;10952;50.836;4.348;2022-12-20T02:47:25;13.40;99.90
21582;DHT22;10952;50.836;4.348;2022-12-20T02:49:53;13.50;99.90
21582;DHT22;10952;50.836;4.348;2022-12-20T02:52:21;13.50;99.90
21582;DHT22;10952;50.836;4.348;2022-12-20T02:54:51;13.40;99.90
21582;DHT22;10952;50.836;4.348;2022-12-20T02:57:26;13.40;99.90
21582;DHT22;10952;50.836;4.348;2022-12-20T03:02:33;13.30;99.90
21582;DHT22;10952;50.836;4.348;2022-12-20T03:05:23;13.30;99.90
21582;DHT22;10952;50.836;4.348;2022-12-20T03:07:53;13.30;99.90
21582;DHT22;10952;50.836;4.348;2022-12-20T03:10:23;13.50;99.90
21582;DHT22;10952;50.836;4.348;2022-12-20T03:12:55;13.40;99.90
21582;DHT22;10952;50.836;4.348;2022-12-20T03:15:29;13.40;99.90
21582;DHT22;10952;50.836;4.348;2022-12-20T03:17:57;13.40;99.90
21582;DHT22;10952;50.836;4.348;2022-12-20T03:20:26;13.40;99.90
21582;DHT22;10952;50.836;4.348;2022-12-20T03:22:54;13.40;99.90
21582;DHT22;10952;50.836;4.348;2022-12-20T03:25:21;13.40;99.90
21582;DHT22;10952;50.836;4.348;2022-12-20T03:27:47;13.40;99.90
21582;DHT22;10952;50.836;4.348;2022-12-20T03:30:14;13.40;99.90
21582;DHT22;10952;50.836;4.348;2022-12-20T03:32:39;13.40;99.90
21582;DHT22;10952;50.836;4.348;2022-12-20T03:35:05;13.40;99.90
21582;DHT22;10952;50.836;4.348;2022-12-20T03:37:31;13.40;99.90
21582;DHT22;10952;50.836;4.348;2022-12-20T03:39:57;13.50;99.90
21582;DHT22;10952;50.836;4.348;2022-12-20T03:42:45;13.60;99.90
21582;DHT22;10952;50.836;4.348;2022-12-20T03:45:14;13.60;99.90
21582;DHT22;10952;50.836;4.348;2022-12-20T03:47:41;13.50;99.90
21582;DHT22;10952;50.836;4.348;2022-12-20T03:50:19;13.40;99.90
21582;DHT22;10952;50.836;4.348;2022-12-20T03:52:48;13.40;99.90
21582;DHT22;10952;50.836;4.348;2022-12-20T03:55:20;13.30;99.90
21582;DHT22;10952;50.836;4.348;2022-12-20T03:57:48;13.30;99.90
21582;DHT22;10952;50.836;4.348;2022-12-20T04:00:15;13.30;99.90
21582;DHT22;10952;50.836;4.348;2022-12-20T04:02:43;13.40;99.90
21582;DHT22;10952;50.836;4.348;2022-12-20T04:05:21;13.40;99.90
21582;DHT22;10952;50.836;4.348;2022-12-20T04:07:47;13.30;99.90
21582;DHT22;10952;50.836;4.348;2022-12-20T04:10:14;13.40;99.90
21582;DHT22;10952;50.836;4.348;2022-12-20T04:12:42;13.40;99.90
21582;DHT22;10952;50.836;4.348;2022-12-20T04:15:26;13.40;99.90
21582;DHT22;10952;50.836;4.348;2022-12-20T04:17:54;13.40;99.90
21582;DHT22;10952;50.836;4.348;2022-12-20T04:20:22;13.30;99.90
21582;DHT22;10952;50.836;4.348;2022-12-20T04:22:49;13.30;99.90
21582;DHT22;10952;50.836;4.348;2022-12-20T04:25:17;13.30;99.90
21582;DHT22;10952;50.836;4.348;2022-12-20T04:27:43;13.30;99.90
21582;DHT22;10952;50.836;4.348;2022-12-20T04:30:11;13.30;99.90
21582;DHT22;10952;50.836;4.348;2022-12-20T04:32:37;13.30;99.90
21582;DHT22;10952;50.836;4.348;2022-12-20T04:35:03;13.30;99.90
21582;DHT22;10952;50.836;4.348;2022-12-20T04:37:30;13.30;99.90
21582;DHT22;10952;50.836;4.348;2022-12-20T04:39:58;13.40;99.90
21582;DHT22;10952;50.836;4.348;2022-12-20T04:42:25;13.30;99.90
21582;DHT22;10952;50.836;4.348;2022-12-20T04:44:51;13.30;99.90
21582;DHT22;10952;50.836;4.348;2022-12-20T04:47:17;13.30;99.90
21582;DHT22;10952;50.836;4.348;2022-12-20T04:49:45;13.20;99.90
21582;DHT22;10952;50.836;4.348;2022-12-20T04:52:16;13.20;99.90
21582;DHT22;10952;50.836;4.348;2022-12-20T04:55:04;13.30;99.90
21582;DHT22;10952;50.836;4.348;2022-12-20T04:57:30;13.30;99.90
21582;DHT22;10952;50.836;4.348;2022-12-20T04:59:59;13.40;99.90
21582;DHT22;10952;50.836;4.348;2022-12-20T05:02:26;13.40;99.90
21582;DHT22;10952;50.836;4.348;2022-12-20T05:04:54;13.40;99.90
21582;DHT22;10952;50.836;4.348;2022-12-20T05:07:23;13.50;99.90
21582;DHT22;10952;50.836;4.348;2022-12-20T05:09:52;13.40;99.90
21582;DHT22;10952;50.836;4.348;2022-12-20T05:12:19;13.40;99.90
21582;DHT22;10952;50.836;4.348;2022-12-20T05:14:47;13.40;99.90
21582;DHT22;10952;50.836;4.348;2022-12-20T05:17:16;13.30;99.90
21582;DHT22;10952;50.836;4.348;2022-12-20T05:19:45;13.30;99.90
21582;DHT22;10952;50.836;4.348;2022-12-20T05:22:11;13.30;99.90
21582;DHT22;10952;50.836;4.348;2022-12-20T05:24:58;13.40;99.90
21582;DHT22;10952;50.836;4.348;2022-12-20T05:27:45;13.30;99.90
21582;DHT22;10952;50.836;4.348;2022-12-20T05:30:11;13.30;99.90
21582;DHT22;10952;50.836;4.348;2022-12-20T05:32:39;13.30;99.90
21582;DHT22;10952;50.836;4.348;2022-12-20T05:35:08;13.20;99.90
21582;DHT22;10952;50.836;4.348;2022-12-20T05:37:37;13.30;99.90
21582;DHT22;10952;50.836;4.348;2022-12-20T05:40:06;13.30;99.90
21582;DHT22;10952;50.836;4.348;2022-12-20T05:42:39;13.30;99.90
21582;DHT22;10952;50.836;4.348;2022-12-20T05:45:08;13.30;99.90
21582;DHT22;10952;50.836;4.348;2022-12-20T05:47:34;13.30;99.90
21582;DHT22;10952;50.836;4.348;2022-12-20T05:49:59;13.30;99.90
21582;DHT22;10952;50.836;4.348;2022-12-20T05:52:26;13.30;99.90
21582;DHT22;10952;50.836;4.348;2022-12-20T05:54:55;13.30;99.90
21582;DHT22;10952;50.836;4.348;2022-12-20T05:57:22;13.40;99.90
21582;DHT22;10952;50.836;4.348;2022-12-20T05:59:48;13.30;99.90
21582;DHT22;10952;50.836;4.348;2022-12-20T06:02:14;13.40;99.90
21582;DHT22;10952;50.836;4.348;2022-12-20T06:04:39;13.40;99.90
21582;DHT22;10952;50.836;4.348;2022-12-20T06:07:05;13.40;99.90
21582;DHT22;10952;50.836;4.348;2022-12-20T06:09:32;13.40;99.90
21582;DHT22;10952;50.836;4.348;2022-12-20T06:11:58;13.40;99.90
21582;DHT22;10952;50.836;4.348;2022-12-20T06:14:24;13.40;99.90
21582;DHT22;10952;50.836;4.348;2022-12-20T06:16:50;13.40;99.90
21582;DHT22;10952;50.836;4.348;2022-12-20T06:19:16;13.40;99.90
21582;DHT22;10952;50.836;4.348;2022-12-20T06:21:42;13.50;99.90
21582;DHT22;10952;50.836;4.348;2022-12-20T06:24:11;13.60;99.90
21582;DHT22;10952;50.836;4.348;2022-12-20T06:26:40;13.60;99.90
21582;DHT22;10952;50.836;4.348;2022-12-20T06:29:09;13.70;99.90
21582;DHT22;10952;50.836;4.348;2022-12-20T06:31:39;13.70;99.90
21582;DHT22;10952;50.836;4.348;2022-12-20T06:34:07;13.70;99.90
21582;DHT22;10952;50.836;4.348;2022-12-20T06:36:32;13.70;99.90
21582;DHT22;10952;50.836;4.348;2022-12-20T06:39:01;13.90;99.90
21582;DHT22;10952;50.836;4.348;2022-12-20T06:41:27;13.90;99.90
21582;DHT22;10952;50.836;4.348;2022-12-20T06:43:53;13.90;99.90
21582;DHT22;10952;50.836;4.348;2022-12-20T06:46:21;13.90;99.90
21582;DHT22;10952;50.836;4.348;2022-12-20T06:48:47;13.80;99.90
21582;DHT22;10952;50.836;4.348;2022-12-20T06:51:14;13.90;99.90
21582;DHT22;10952;50.836;4.348;2022-12-20T06:53:39;13.90;99.90
21582;DHT22;10952;50.836;4.348;2022-12-20T06:56:05;14.00;99.90
21582;DHT22;10952;50.836;4.348;2022-12-20T06:58:32;14.00;99.90
21582;DHT22;10952;50.836;4.348;2022-12-20T07:00:59;14.00;99.90
21582;DHT22;10952;50.836;4.348;2022-12-20T07:03:25;13.90;99.90
21582;DHT22;10952;50.836;4.348;2022-12-20T07:05:51;13.90;99.90
21582;DHT22;10952;50.836;4.348;2022-12-20T07:08:22;13.90;99.90
21582;DHT22;10952;50.836;4.348;2022-12-20T07:10:50;13.80;99.90
21582;DHT22;10952;50.836;4.348;2022-12-20T07:13:17;13.70;99.90
21582;DHT22;10952;50.836;4.348;2022-12-20T07:15:43;13.60;99.90
21582;DHT22;10952;50.836;4.348;2022-12-20T07:18:09;13.50;99.90
21582;DHT22;10952;50.836;4.348;2022-12-20T07:20:35;13.40;99.90
21582;DHT22;10952;50.836;4.348;2022-12-20T07:23:01;13.40;99.90
21582;DHT22;10952;50.836;4.348;2022-12-20T07:25:28;13.30;99.90
21582;DHT22;10952;50.836;4.348;2022-12-20T07:27:54;13.30;99.90
21582;DHT22;10952;50.836;4.348;2022-12-20T07:30:19;13.20;99.90
21582;DHT22;10952;50.836;4.348;2022-12-20T07:32:45;13.20;99.90
21582;DHT22;10952;50.836;4.348;2022-12-20T07:35:12;13.10;99.90
21582;DHT22;10952;50.836;4.348;2022-12-20T07:37:41;13.00;99.90
21582;DHT22;10952;50.836;4.348;2022-12-20T07:40:09;13.00;99.90
21582;DHT22;10952;50.836;4.348;2022-12-20T07:42:37;12.80;99.90
21582;DHT22;10952;50.836;4.348;2022-12-20T07:45:03;12.70;99.90
21582;DHT22;10952;50.836;4.348;2022-12-20T07:47:29;12.70;99.90
21582;DHT22;10952;50.836;4.348;2022-12-20T07:49:54;12.60;99.90
21582;DHT22;10952;50.836;4.348;2022-12-20T07:52:23;12.50;99.90
21582;DHT22;10952;50.836;4.348;2022-12-20T07:54:57;12.50;99.90
21582;DHT22;10952;50.836;4.348;2022-12-20T07:57:52;12.50;99.90
21582;DHT22;10952;50.836;4.348;2022-12-20T08:00:19;12.50;99.90
21582;DHT22;10952;50.836;4.348;2022-12-20T08:03:01;12.50;99.90
21582;DHT22;10952;50.836;4.348;2022-12-20T08:05:29;12.40;99.90
21582;DHT22;10952;50.836;4.348;2022-12-20T08:08:04;12.40;99.90
21582;DHT22;10952;50.836;4.348;2022-12-20T08:10:32;12.40;99.90
21582;DHT22;10952;50.836;4.348;2022-12-20T08:12:59;12.40;99.90
21582;DHT22;10952;50.836;4.348;2022-12-20T08:15:27;12.40;99.90
21582;DHT22;10952;50.836;4.348;2022-12-20T08:17:54;12.40;99.90
21582;DHT22;10952;50.836;4.348;2022-12-20T08:20:20;12.30;99.90
21582;DHT22;10952;50.836;4.348;2022-12-20T08:22:48;12.30;99.90
21582;DHT22;10952;50.836;4.348;2022-12-20T08:25:14;12.50;99.90
21582;DHT22;10952;50.836;4.348;2022-12-20T08:27:40;12.40;99.90
21582;DHT22;10952;50.836;4.348;2022-12-20T08:30:09;12.30;99.90
21582;DHT22;10952;50.836;4.348;2022-12-20T08:32:38;12.40;99.90
21582;DHT22;10952;50.836;4.348;2022-12-20T08:35:05;12.50;99.90
21582;DHT22;10952;50.836;4.348;2022-12-20T08:37:34;12.40;99.90
21582;DHT22;10952;50.836;4.348;2022-12-20T08:40:01;12.50;99.90
21582;DHT22;10952;50.836;4.348;2022-12-20T08:42:28;12.60;99.90
21582;DHT22;10952;50.836;4.348;2022-12-20T08:44:54;12.70;99.90
21582;DHT22;10952;50.836;4.348;2022-12-20T08:47:19;12.70;99.90
21582;DHT22;10952;50.836;4.348;2022-12-20T08:49:51;12.70;99.90
21582;DHT22;10952;50.836;4.348;2022-12-20T08:52:18;12.80;99.90
21582;DHT22;10952;50.836;4.348;2022-12-20T08:54:43;12.90;99.90
21582;DHT22;10952;50.836;4.348;2022-12-20T08:57:09;12.90;99.90
21582;DHT22;10952;50.836;4.348;2022-12-20T08:59:35;13.00;99.90
21582;DHT22;10952;50.836;4.348;2022-12-20T09:02:01;13.00;99.90
21582;DHT22;10952;50.836;4.348;2022-12-20T09:04:27;13.10;99.90
21582;DHT22;10952;50.836;4.348;2022-12-20T09:06:52;13.10;99.90
21582;DHT22;10952;50.836;4.348;2022-12-20T09:09:18;13.10;99.90
21582;DHT22;10952;50.836;4.348;2022-12-20T09:11:45;13.00;99.90
21582;DHT22;10952;50.836;4.348;2022-12-20T09:14:13;12.90;99.90
21582;DHT22;10952;50.836;4.348;2022-12-20T09:16:39;12.90;99.90
21582;DHT22;10952;50.836;4.348;2022-12-20T09:19:09;13.00;99.90
21582;DHT22;10952;50.836;4.348;2022-12-20T09:21:39;13.00;99.90
21582;DHT22;10952;50.836;4.348;2022-12-20T09:24:11;13.00;99.90
21582;DHT22;10952;50.836;4.348;2022-12-20T09:26:38;12.90;99.90
21582;DHT22;10952;50.836;4.348;2022-12-20T09:29:08;13.10;99.90
21582;DHT22;10952;50.836;4.348;2022-12-20T09:31:37;13.10;99.90
21582;DHT22;10952;50.836;4.348;2022-12-20T09:34:08;13.10;99.90
21582;DHT22;10952;50.836;4.348;2022-12-20T09:36:37;13.10;99.90
21582;DHT22;10952;50.836;4.348;2022-12-20T09:39:06;13.00;99.90
21582;DHT22;10952;50.836;4.348;2022-12-20T09:41:38;13.00;99.90
21582;DHT22;10952;50.836;4.348;2022-12-20T09:44:18;13.00;99.90
21582;DHT22;10952;50.836;4.348;2022-12-20T09:46:48;13.00;99.90
21582;DHT22;10952;50.836;4.348;2022-12-20T09:49:24;13.00;99.90
21582;DHT22;10952;50.836;4.348;2022-12-20T09:52:11;12.90;99.90
21582;DHT22;10952;50.836;4.348;2022-12-20T09:55:00;12.80;99.90
21582;DHT22;10952;50.836;4.348;2022-12-20T09:58:02;12.80;99.90
21582;DHT22;10952;50.836;4.348;2022-12-20T10:00:40;12.70;99.90
21582;DHT22;10952;50.836;4.348;2022-12-20T10:03:12;12.70;99.90
21582;DHT22;10952;50.836;4.348;2022-12-20T10:05:51;12.70;99.90
21582;DHT22;10952;50.836;4.348;2022-12-20T10:09:10;12.60;99.90
21582;DHT22;10952;50.836;4.348;2022-12-20T10:17:07;12.60;99.90
21582;DHT22;10952;50.836;4.348;2022-12-20T10:22:29;12.70;99.90
21582;DHT22;10952;50.836;4.348;2022-12-20T10:25:16;12.70;99.90
21582;DHT22;10952;50.836;4.348;2022-12-20T10:27:45;12.80;99.90
21582;DHT22;10952;50.836;4.348;2022-12-20T10:30:22;12.80;99.90
21582;DHT22;10952;50.836;4.348;2022-12-20T10:32:54;12.80;99.90
21582;DHT22;10952;50.836;4.348;2022-12-20T10:35:32;12.70;99.90
21582;DHT22;10952;50.836;4.348;2022-12-20T10:38:09;12.70;99.90
21582;DHT22;10952;50.836;4.348;2022-12-20T10:41:10;12.70;99.90
21582;DHT22;10952;50.836;4.348;2022-12-20T10:43:51;12.60;99.90
21582;DHT22;10952;50.836;4.348;2022-12-20T10:46:19;12.60;99.90
21582;DHT22;10952;50.836;4.348;2022-12-20T10:48:46;12.60;99.90
21582;DHT22;10952;50.836;4.348;2022-12-20T10:51:21;12.50;99.90
21582;DHT22;10952;50.836;4.348;2022-12-20T10:54:01;12.50;99.90
21582;DHT22;10952;50.836;4.348;2022-12-20T10:56:32;12.50;99.90
21582;DHT22;10952;50.836;4.348;2022-12-20T11:01:44;12.50;99.90
21582;DHT22;10952;50.836;4.348;2022-12-20T11:04:32;12.50;99.90
21582;DHT22;10952;50.836;4.348;2022-12-20T11:07:03;12.50;99.90
21582;DHT22;10952;50.836;4.348;2022-12-20T11:10:00;12.60;99.90
21582;DHT22;10952;50.836;4.348;2022-12-20T11:12:29;12.60;99.90
21582;DHT22;10952;50.836;4.348;2022-12-20T11:15:33;12.60;99.90
21582;DHT22;10952;50.836;4.348;2022-12-20T11:18:05;12.60;99.90
21582;DHT22;10952;50.836;4.348;2022-12-20T11:20:54;12.50;99.90
21582;DHT22;10952;50.836;4.348;2022-12-20T11:23:35;12.50;99.90
21582;DHT22;10952;50.836;4.348;2022-12-20T11:26:40;12.40;99.90
21582;DHT22;10952;50.836;4.348;2022-12-20T11:35:01;12.30;99.90
21582;DHT22;10952;50.836;4.348;2022-12-20T11:37:35;12.30;99.90
21582;DHT22;10952;50.836;4.348;2022-12-20T11:54:41;12.20;99.90
21582;DHT22;10952;50.836;4.348;2022-12-20T11:57:28;12.20;99.90
21582;DHT22;10952;50.836;4.348;2022-12-20T11:59:59;12.20;99.90
21582;DHT22;10952;50.836;4.348;2022-12-20T12:02:36;12.10;99.90
21582;DHT22;10952;50.836;4.348;2022-12-20T12:08:08;12.10;99.90
21582;DHT22;10952;50.836;4.348;2022-12-20T12:10:42;12.00;99.90
21582;DHT22;10952;50.836;4.348;2022-12-20T12:13:12;12.00;99.90
21582;DHT22;10952;50.836;4.348;2022-12-20T12:18:27;12.00;99.90
21582;DHT22;10952;50.836;4.348;2022-12-20T12:24:03;12.00;99.90
21582;DHT22;10952;50.836;4.348;2022-12-20T12:26:32;12.00;99.90
21582;DHT22;10952;50.836;4.348;2022-12-20T12:29:19;12.00;99.90
21582;DHT22;10952;50.836;4.348;2022-12-20T12:44:57;12.10;99.90
21582;DHT22;10952;50.836;4.348;2022-12-20T12:47:39;12.10;99.90
21582;DHT22;10952;50.836;4.348;2022-12-20T12:50:22;12.00;99.90
21582;DHT22;10952;50.836;4.348;2022-12-20T12:53:15;12.00;99.90
21582;DHT22;10952;50.836;4.348;2022-12-20T12:55:53;12.00;99.90
21582;DHT22;10952;50.836;4.348;2022-12-20T13:00:52;12.00;99.90
21582;DHT22;10952;50.836;4.348;2022-12-20T13:11:35;11.90;99.90
21582;DHT22;10952;50.836;4.348;2022-12-20T13:19:35;11.90;99.90
21582;DHT22;10952;50.836;4.348;2022-12-20T13:25:00;11.90;99.90
21582;DHT22;10952;50.836;4.348;2022-12-20T13:27:35;11.80;99.90
21582;DHT22;10952;50.836;4.348;2022-12-20T13:38:03;11.70;99.90
21582;DHT22;10952;50.836;4.348;2022-12-20T13:40:56;11.70;99.90
21582;DHT22;10952;50.836;4.348;2022-12-20T13:43:35;11.80;99.90
21582;DHT22;10952;50.836;4.348;2022-12-20T13:46:29;11.80;99.90
21582;DHT22;10952;50.836;4.348;2022-12-20T13:49:01;11.80;99.90
21582;DHT22;10952;50.836;4.348;2022-12-20T13:51:30;11.80;99.90
21582;DHT22;10952;50.836;4.348;2022-12-20T13:59:31;11.70;99.90
21582;DHT22;10952;50.836;4.348;2022-12-20T14:01:59;11.80;99.90
21582;DHT22;10952;50.836;4.348;2022-12-20T14:04:36;11.70;99.90
21582;DHT22;10952;50.836;4.348;2022-12-20T14:07:09;11.80;99.90
21582;DHT22;10952;50.836;4.348;2022-12-20T14:09:43;11.80;99.90
21582;DHT22;10952;50.836;4.348;2022-12-20T14:12:18;11.90;99.90
21582;DHT22;10952;50.836;4.348;2022-12-20T14:14:51;11.90;99.90
21582;DHT22;10952;50.836;4.348;2022-12-20T14:17:32;11.90;99.90
21582;DHT22;10952;50.836;4.348;2022-12-20T14:20:14;11.90;99.90
21582;DHT22;10952;50.836;4.348;2022-12-20T14:23:01;11.90;99.90
21582;DHT22;10952;50.836;4.348;2022-12-20T14:25:51;12.10;99.90
21582;DHT22;10952;50.836;4.348;2022-12-20T14:28:39;11.90;99.90
21582;DHT22;10952;50.836;4.348;2022-12-20T14:31:22;12.00;99.90
21582;DHT22;10952;50.836;4.348;2022-12-20T14:33:48;12.00;99.90
21582;DHT22;10952;50.836;4.348;2022-12-20T14:38:47;12.00;99.90
21582;DHT22;10952;50.836;4.348;2022-12-20T14:41:38;12.00;99.90
21582;DHT22;10952;50.836;4.348;2022-12-20T14:44:22;12.10;99.90
21582;DHT22;10952;50.836;4.348;2022-12-20T14:46:59;12.10;99.90
21582;DHT22;10952;50.836;4.348;2022-12-20T14:49:38;12.20;99.90
21582;DHT22;10952;50.836;4.348;2022-12-20T14:52:16;12.10;99.90
21582;DHT22;10952;50.836;4.348;2022-12-20T14:55:10;12.10;99.90
21582;DHT22;10952;50.836;4.348;2022-12-20T14:57:44;12.00;99.90
21582;DHT22;10952;50.836;4.348;2022-12-20T15:05:37;12.00;99.90
21582;DHT22;10952;50.836;4.348;2022-12-20T15:08:30;12.00;99.90
21582;DHT22;10952;50.836;4.348;2022-12-20T15:13:42;11.90;99.90
21582;DHT22;10952;50.836;4.348;2022-12-20T15:16:18;11.90;99.90
21582;DHT22;10952;50.836;4.348;2022-12-20T15:18:45;11.90;99.90
21582;DHT22;10952;50.836;4.348;2022-12-20T15:21:30;11.90;99.90
21582;DHT22;10952;50.836;4.348;2022-12-20T15:24:00;11.90;99.90
21582;DHT22;10952;50.836;4.348;2022-12-20T15:26:29;12.00;99.90
21582;DHT22;10952;50.836;4.348;2022-12-20T15:28:56;12.00;99.90
21582;DHT22;10952;50.836;4.348;2022-12-20T15:31:42;11.90;99.90
21582;DHT22;10952;50.836;4.348;2022-12-20T15:34:31;11.90;99.90
21582;DHT22;10952;50.836;4.348;2022-12-20T15:37:01;11.90;99.90
21582;DHT22;10952;50.836;4.348;2022-12-20T15:39:27;11.80;99.90
21582;DHT22;10952;50.836;4.348;2022-12-20T15:41:55;12.00;99.90
21582;DHT22;10952;50.836;4.348;2022-12-20T15:44:25;12.00;99.90
21582;DHT22;10952;50.836;4.348;2022-12-20T15:46:52;12.00;99.90
21582;DHT22;10952;50.836;4.348;2022-12-20T15:49:20;12.00;99.90
21582;DHT22;10952;50.836;4.348;2022-12-20T15:51:49;11.90;99.90
21582;DHT22;10952;50.836;4.348;2022-12-20T15:56:48;12.00;99.90
21582;DHT22;10952;50.836;4.348;2022-12-20T15:59:14;12.10;99.90
21582;DHT22;10952;50.836;4.348;2022-12-20T16:01:40;12.10;99.90
21582;DHT22;10952;50.836;4.348;2022-12-20T16:04:17;12.10;99.90
21582;DHT22;10952;50.836;4.348;2022-12-20T16:06:45;12.00;99.90
21582;DHT22;10952;50.836;4.348;2022-12-20T16:09:12;11.90;99.90
21582;DHT22;10952;50.836;4.348;2022-12-20T16:11:38;11.90;99.90
21582;DHT22;10952;50.836;4.348;2022-12-20T16:14:04;11.90;99.90
21582;DHT22;10952;50.836;4.348;2022-12-20T16:16:33;11.90;99.90
21582;DHT22;10952;50.836;4.348;2022-12-20T16:18:59;12.00;99.90
21582;DHT22;10952;50.836;4.348;2022-12-20T16:21:46;12.00;99.90
21582;DHT22;10952;50.836;4.348;2022-12-20T16:24:15;12.00;99.90
21582;DHT22;10952;50.836;4.348;2022-12-20T16:26:43;12.00;99.90
21582;DHT22;10952;50.836;4.348;2022-12-20T16:29:09;12.00;99.90
21582;DHT22;10952;50.836;4.348;2022-12-20T16:31:40;12.00;99.90
21582;DHT22;10952;50.836;4.348;2022-12-20T16:34:12;12.00;99.90
21582;DHT22;10952;50.836;4.348;2022-12-20T16:36:40;11.90;99.90
21582;DHT22;10952;50.836;4.348;2022-12-20T16:39:07;12.00;99.90
21582;DHT22;10952;50.836;4.348;2022-12-20T16:41:39;12.00;99.90
21582;DHT22;10952;50.836;4.348;2022-12-20T16:44:14;11.90;99.90
21582;DHT22;10952;50.836;4.348;2022-12-20T16:46:40;11.90;99.90
21582;DHT22;10952;50.836;4.348;2022-12-20T16:49:09;11.90;99.90
21582;DHT22;10952;50.836;4.348;2022-12-20T16:51:45;11.90;99.90
21582;DHT22;10952;50.836;4.348;2022-12-20T16:54:15;11.90;99.90
21582;DHT22;10952;50.836;4.348;2022-12-20T16:56:42;11.90;99.90
21582;DHT22;10952;50.836;4.348;2022-12-20T16:59:12;12.00;99.90
21582;DHT22;10952;50.836;4.348;2022-12-20T17:01:39;11.90;99.90
21582;DHT22;10952;50.836;4.348;2022-12-20T17:04:13;11.90;99.90
21582;DHT22;10952;50.836;4.348;2022-12-20T17:06:42;11.90;99.90
21582;DHT22;10952;50.836;4.348;2022-12-20T17:09:11;11.90;99.90
21582;DHT22;10952;50.836;4.348;2022-12-20T17:11:39;11.90;99.90
21582;DHT22;10952;50.836;4.348;2022-12-20T17:14:06;11.90;99.90
21582;DHT22;10952;50.836;4.348;2022-12-20T17:16:32;11.90;99.90
21582;DHT22;10952;50.836;4.348;2022-12-20T17:18:59;11.90;99.90
21582;DHT22;10952;50.836;4.348;2022-12-20T17:24:18;11.90;99.90
21582;DHT22;10952;50.836;4.348;2022-12-20T17:26:48;11.90;99.90
21582;DHT22;10952;50.836;4.348;2022-12-20T17:29:19;11.90;99.90
21582;DHT22;10952;50.836;4.348;2022-12-20T17:31:45;11.90;99.90
21582;DHT22;10952;50.836;4.348;2022-12-20T17:34:18;11.90;99.90
21582;DHT22;10952;50.836;4.348;2022-12-20T17:36:49;11.90;99.90
21582;DHT22;10952;50.836;4.348;2022-12-20T17:39:16;11.90;99.90
21582;DHT22;10952;50.836;4.348;2022-12-20T17:41:47;12.00;99.90
21582;DHT22;10952;50.836;4.348;2022-12-20T17:44:23;11.80;99.90
21582;DHT22;10952;50.836;4.348;2022-12-20T17:46:49;11.90;99.90
21582;DHT22;10952;50.836;4.348;2022-12-20T17:49:22;11.90;99.90
21582;DHT22;10952;50.836;4.348;2022-12-20T17:51:51;11.80;99.90
21582;DHT22;10952;50.836;4.348;2022-12-20T17:54:23;11.80;99.90
21582;DHT22;10952;50.836;4.348;2022-12-20T17:56:49;11.80;99.90
21582;DHT22;10952;50.836;4.348;2022-12-20T17:59:16;11.80;99.90
21582;DHT22;10952;50.836;4.348;2022-12-20T18:01:42;11.90;99.90